Time;durP1;ratioP1;P1;durP2;ratioP2;P2;SDS_P1;SDS_P2;PMS_P1;PMS_P2;Temp;Humidity;BMP_temperature;BMP_pressure;BME280_temperature;BME280_humidity;BME280_pressure;Samples;Min_cycle;Max_cycle;Signal;HPM_P1;HPM_P2
2023/10/08 00:01:26;;;;;;;21.63;13.02;;;17.50;98.90;;;;;;4247424;28;20443;-56
2023/10/08 00:03:29;;;;;;;23.58;14.80;;;17.50;98.80;;;;;;4247387;28;20533;-58
2023/10/08 00:05:36;;;;;;;26.20;16.23;;;17.50;99.10;;;;;;4247177;28;20043;-56
2023/10/08 00:07:42;;;;;;;19.13;12.27;;;17.50;99.20;;;;;;4247205;28;20117;-57
2023/10/08 00:09:44;;;;;;;22.30;13.82;;;17.50;98.90;;;;;;4247223;28;20051;-56
2023/10/08 00:11:52;;;;;;;22.65;14.23;;;17.50;98.90;;;;;;4247167;28;20054;-57
2023/10/08 00:13:56;;;;;;;38.38;22.58;;;17.50;98.90;;;;;;4247537;28;20043;-55
2023/10/08 00:15:58;;;;;;;42.08;24.20;;;17.60;99.10;;;;;;4247288;28;20078;-58
2023/10/08 00:18:01;;;;;;;40.15;23.17;;;17.60;99.00;;;;;;4261020;27;20049;-57
2023/10/08 00:20:06;;;;;;;37.75;23.73;;;17.60;99.00;;;;;;4266207;27;20043;-58
2023/10/08 00:22:09;;;;;;;37.95;24.00;;;17.60;99.00;;;;;;4267827;27;20046;-58
2023/10/08 00:24:15;;;;;;;38.80;21.83;;;17.60;98.90;;;;;;4267546;27;20042;-58
2023/10/08 00:26:18;;;;;;;36.75;22.00;;;17.60;98.80;;;;;;4267865;27;20122;-58
2023/10/08 00:28:21;;;;;;;35.28;22.00;;;17.60;98.90;;;;;;4267474;27;20117;-59
2023/10/08 00:30:23;;;;;;;32.33;20.33;;;17.60;98.90;;;;;;4267893;27;20045;-59
2023/10/08 00:32:25;;;;;;;32.70;19.98;;;17.50;98.80;;;;;;4267689;27;20038;-58
2023/10/08 00:34:27;;;;;;;33.13;20.10;;;17.50;98.90;;;;;;4267374;27;20070;-58
2023/10/08 00:36:30;;;;;;;35.70;20.10;;;17.50;99.00;;;;;;4267636;27;20047;-59
2023/10/08 00:38:32;;;;;;;30.05;17.13;;;17.40;98.80;;;;;;4267593;27;20113;-59
2023/10/08 00:40:39;;;;;;;28.67;18.60;;;17.50;98.80;;;;;;4267663;27;20472;-59
2023/10/08 00:42:45;;;;;;;28.85;17.85;;;17.40;98.80;;;;;;4267684;27;20463;-56
2023/10/08 00:44:51;;;;;;;28.27;16.52;;;17.40;98.80;;;;;;4267868;27;20419;-56
2023/10/08 00:46:55;;;;;;;28.58;18.08;;;17.40;98.80;;;;;;4268034;27;20470;-59
2023/10/08 00:49:17;;;;;;;29.35;16.98;;;17.30;99.00;;;;;;4267633;27;20060;-56
2023/10/08 00:53:25;;;;;;;;;;;17.20;99.20;;;;;;4268271;27;20054;-56
2023/10/08 00:55:33;;;;;;;31.20;17.92;;;17.10;99.20;;;;;;4267317;27;19935;-58
2023/10/08 00:57:37;;;;;;;32.40;18.50;;;17.10;99.30;;;;;;4267212;27;20035;-56
2023/10/08 00:59:45;;;;;;;27.52;16.83;;;17.10;99.40;;;;;;4267487;27;20053;-58
2023/10/08 01:01:51;;;;;;;27.20;18.23;;;17.10;99.40;;;;;;4267122;27;20054;-56
2023/10/08 01:03:55;;;;;;;29.15;17.75;;;17.10;99.50;;;;;;4266803;27;20045;-59
2023/10/08 01:05:57;;;;;;;29.73;16.77;;;17.00;99.50;;;;;;4267207;27;20081;-58
2023/10/08 01:08:00;;;;;;;26.73;16.90;;;17.00;99.80;;;;;;4267218;27;20138;-58
2023/10/08 01:10:10;;;;;;;29.08;16.98;;;17.00;99.60;;;;;;4267495;27;20047;-58
2023/10/08 01:12:26;;;;;;;29.58;17.60;;;17.00;99.70;;;;;;4267165;27;20047;-59
2023/10/08 01:14:32;;;;;;;33.78;19.48;;;17.00;99.70;;;;;;4267175;27;20050;-59
2023/10/08 01:16:34;;;;;;;27.15;17.27;;;16.90;99.90;;;;;;4266902;27;20050;-59
2023/10/08 01:18:42;;;;;;;32.63;16.55;;;16.90;99.90;;;;;;4266895;27;20082;-58
2023/10/08 01:22:51;;;;;;;31.02;17.65;;;16.80;99.90;;;;;;4267114;27;20065;-58
2023/10/08 01:24:53;;;;;;;26.27;16.65;;;16.80;99.90;;;;;;4267005;27;20043;-59
2023/10/08 01:26:55;;;;;;;25.63;16.42;;;16.80;99.90;;;;;;4266944;27;20051;-59
2023/10/08 01:29:02;;;;;;;27.10;17.27;;;16.80;99.90;;;;;;4267089;27;20084;-59
2023/10/08 01:31:06;;;;;;;27.10;17.33;;;16.80;99.90;;;;;;4265837;27;20049;-59
2023/10/08 01:33:13;;;;;;;28.98;17.83;;;16.80;99.90;;;;;;4266757;27;20573;-59
2023/10/08 01:35:24;;;;;;;28.38;17.88;;;16.70;99.90;;;;;;4266752;27;20070;-59
2023/10/08 01:37:27;;;;;;;31.75;17.95;;;16.70;99.90;;;;;;4266762;27;20100;-58
2023/10/08 01:39:32;;;;;;;29.10;16.77;;;16.70;99.90;;;;;;4266438;27;20078;-57
2023/10/08 01:41:40;;;;;;;28.80;17.50;;;16.70;99.90;;;;;;4266742;27;20111;-59
2023/10/08 01:43:42;;;;;;;27.52;16.27;;;16.70;99.90;;;;;;4266694;27;20058;-59
2023/10/08 01:45:51;;;;;;;26.25;16.17;;;16.70;99.90;;;;;;4266109;27;20042;-59
2023/10/08 01:47:54;;;;;;;22.58;15.88;;;16.70;99.90;;;;;;4266457;27;20074;-59
2023/10/08 01:50:05;;;;;;;26.90;16.88;;;16.70;99.90;;;;;;4266839;27;20476;-59
2023/10/08 01:52:13;;;;;;;26.63;15.65;;;16.70;99.90;;;;;;4266343;27;20078;-59
2023/10/08 01:54:20;;;;;;;27.75;16.50;;;16.60;99.90;;;;;;4266653;27;20093;-59
2023/10/08 01:56:24;;;;;;;26.05;15.40;;;16.70;99.90;;;;;;4266692;27;20043;-59
2023/10/08 01:58:26;;;;;;;26.02;16.10;;;16.70;99.90;;;;;;4266805;27;20433;-59
2023/10/08 02:00:28;;;;;;;23.92;15.40;;;16.60;99.90;;;;;;4266529;27;20201;-59
2023/10/08 02:02:30;;;;;;;26.88;16.42;;;16.60;99.90;;;;;;4266647;27;20099;-59
2023/10/08 02:04:35;;;;;;;23.08;14.18;;;16.60;99.90;;;;;;4266788;27;20054;-58
2023/10/08 02:06:37;;;;;;;25.75;15.70;;;16.60;99.90;;;;;;4266273;27;20042;-59
2023/10/08 02:08:39;;;;;;;23.35;15.75;;;16.60;99.90;;;;;;4266468;27;20487;-59
2023/10/08 02:10:44;;;;;;;24.35;15.35;;;16.70;99.90;;;;;;4266376;27;20074;-59
2023/10/08 02:12:48;;;;;;;28.05;16.58;;;16.70;99.90;;;;;;4266212;27;20164;-58
2023/10/08 02:14:50;;;;;;;22.17;15.35;;;16.60;99.90;;;;;;4248291;27;20464;-59
2023/10/08 02:16:56;;;;;;;28.02;17.48;;;16.70;99.90;;;;;;4266279;27;20047;-59
2023/10/08 02:18:58;;;;;;;28.45;18.55;;;16.70;99.90;;;;;;4266025;27;20038;-56
2023/10/08 02:21:00;;;;;;;25.02;16.33;;;16.60;99.90;;;;;;4266337;27;20108;-57
2023/10/08 02:23:05;;;;;;;30.02;17.48;;;16.60;99.90;;;;;;4266140;27;20038;-57
2023/10/08 02:25:11;;;;;;;28.58;17.83;;;16.60;99.90;;;;;;4265996;27;20046;-59
2023/10/08 02:27:15;;;;;;;35.20;18.08;;;16.70;99.90;;;;;;4265927;27;20129;-59
2023/10/08 02:29:18;;;;;;;28.75;17.45;;;16.60;99.90;;;;;;4265659;27;20061;-56
2023/10/08 02:31:20;;;;;;;26.65;17.52;;;16.60;99.90;;;;;;4266018;27;20077;-56
2023/10/08 02:33:22;;;;;;;23.98;15.60;;;16.60;99.90;;;;;;4265993;27;20062;-57
2023/10/08 02:35:24;;;;;;;24.30;15.90;;;16.60;99.90;;;;;;4265884;27;20065;-60
2023/10/08 02:37:28;;;;;;;26.60;16.65;;;16.50;99.90;;;;;;4265980;27;20043;-58
2023/10/08 02:39:34;;;;;;;31.10;17.25;;;16.50;99.90;;;;;;4265744;27;20054;-59
2023/10/08 02:41:41;;;;;;;27.80;17.65;;;16.50;99.90;;;;;;4265686;27;20043;-58
2023/10/08 02:43:44;;;;;;;35.53;17.98;;;16.50;99.90;;;;;;4264414;27;20053;-56
2023/10/08 02:45:49;;;;;;;22.17;15.30;;;16.50;99.90;;;;;;4265537;27;20519;-58
2023/10/08 02:47:52;;;;;;;23.88;15.88;;;16.50;99.90;;;;;;4266875;27;20053;-61
2023/10/08 02:49:55;;;;;;;26.60;17.40;;;16.50;99.90;;;;;;4266067;27;20043;-58
2023/10/08 02:51:58;;;;;;;29.40;17.27;;;16.50;99.90;;;;;;4265637;27;20081;-57
2023/10/08 02:54:00;;;;;;;30.55;16.55;;;16.40;99.90;;;;;;4265660;27;20050;-59
2023/10/08 02:56:12;;;;;;;25.38;16.05;;;16.40;99.90;;;;;;4264900;27;20047;-60
2023/10/08 02:58:15;;;;;;;26.40;15.77;;;16.40;99.90;;;;;;4266273;27;20537;-59
2023/10/08 03:00:20;;;;;;;26.08;17.42;;;16.40;99.90;;;;;;4266528;27;20467;-57
2023/10/08 03:02:24;;;;;;;28.60;17.10;;;16.40;99.90;;;;;;4265629;27;20514;-58
2023/10/08 03:04:27;;;;;;;32.45;17.52;;;16.40;99.90;;;;;;4265423;27;20404;-55
2023/10/08 03:06:32;;;;;;;30.20;15.80;;;16.30;99.90;;;;;;4265435;27;20468;-55
2023/10/08 03:08:36;;;;;;;25.98;16.25;;;16.30;99.90;;;;;;4265404;27;20073;-55
2023/10/08 03:10:41;;;;;;;26.67;16.63;;;16.30;99.90;;;;;;4265498;27;20381;-56
2023/10/08 03:12:46;;;;;;;26.95;16.60;;;16.30;99.90;;;;;;4265190;27;20066;-56
2023/10/08 03:15:12;;;;;;;27.92;16.08;;;16.30;99.90;;;;;;4265730;27;20051;-56
2023/10/08 03:17:19;;;;;;;31.48;16.98;;;16.30;99.90;;;;;;4265156;27;20073;-56
2023/10/08 03:19:23;;;;;;;31.17;16.65;;;16.20;99.90;;;;;;4265212;27;20030;-56
2023/10/08 03:23:45;;;;;;;24.30;15.50;;;16.20;99.90;;;;;;4265072;27;20455;-56
2023/10/08 03:25:49;;;;;;;29.77;16.50;;;16.20;99.90;;;;;;4265002;27;20073;-56
2023/10/08 03:27:54;;;;;;;21.77;15.07;;;16.20;99.90;;;;;;4264798;27;20038;-56
2023/10/08 03:29:58;;;;;;;23.83;15.38;;;16.20;99.90;;;;;;4265152;27;20047;-56
2023/10/08 03:32:05;;;;;;;26.15;15.70;;;16.20;99.90;;;;;;4265142;27;20069;-56
2023/10/08 03:34:12;;;;;;;24.70;14.02;;;16.20;99.90;;;;;;4265169;27;20051;-58
2023/10/08 03:36:29;;;;;;;23.20;14.18;;;16.20;99.90;;;;;;4265243;27;20381;-58
2023/10/08 03:38:44;;;;;;;21.80;14.60;;;16.20;99.90;;;;;;4264874;27;20049;-57
2023/10/08 03:40:48;;;;;;;22.77;14.43;;;16.20;99.90;;;;;;4264925;27;20042;-57
2023/10/08 03:42:56;;;;;;;21.58;14.52;;;16.20;99.90;;;;;;4264409;27;20073;-59
2023/10/08 03:45:09;;;;;;;25.95;15.57;;;16.20;99.90;;;;;;4264986;27;20095;-56
2023/10/08 03:47:11;;;;;;;22.70;14.75;;;16.20;99.90;;;;;;4264751;27;20054;-57
2023/10/08 03:51:27;;;;;;;24.40;14.55;;;16.20;99.90;;;;;;4264346;27;20055;-57
2023/10/08 03:53:42;;;;;;;22.48;14.73;;;16.20;99.90;;;;;;4264733;27;20051;-57
2023/10/08 03:55:44;;;;;;;25.75;14.40;;;16.20;99.90;;;;;;4264484;27;20042;-55
2023/10/08 03:57:50;;;;;;;21.08;12.88;;;16.20;99.90;;;;;;4264309;27;20134;-56
2023/10/08 03:59:58;;;;;;;21.30;12.90;;;16.20;99.90;;;;;;4264868;27;20050;-57
2023/10/08 04:02:15;;;;;;;20.63;12.20;;;16.20;99.90;;;;;;4264775;27;20107;-57
2023/10/08 04:04:17;;;;;;;22.80;12.80;;;16.20;99.90;;;;;;4264470;27;20489;-57
2023/10/08 04:06:27;;;;;;;24.42;13.45;;;16.20;99.90;;;;;;4246450;27;20046;-55
2023/10/08 04:08:42;;;;;;;22.48;12.90;;;16.20;99.90;;;;;;4264552;27;20039;-55
2023/10/08 04:12:50;;;;;;;24.77;13.25;;;16.10;99.90;;;;;;4264766;27;20018;-54
2023/10/08 04:14:57;;;;;;;19.15;12.48;;;16.00;99.90;;;;;;4264665;27;20126;-56
2023/10/08 04:17:04;;;;;;;27.23;14.13;;;16.00;99.90;;;;;;4246615;27;20118;-56
2023/10/08 04:19:11;;;;;;;21.08;13.48;;;16.00;99.90;;;;;;4247121;27;20051;-56
2023/10/08 04:21:16;;;;;;;22.05;13.27;;;16.00;99.90;;;;;;4264377;27;20123;-58
2023/10/08 04:23:20;;;;;;;21.50;12.77;;;15.90;99.90;;;;;;4264762;27;20123;-56
2023/10/08 04:25:25;;;;;;;20.75;12.68;;;15.90;99.90;;;;;;4264514;27;20076;-57
2023/10/08 04:27:33;;;;;;;23.05;13.68;;;15.90;99.90;;;;;;4264481;27;20126;-58
2023/10/08 04:29:42;;;;;;;19.50;13.27;;;15.90;99.90;;;;;;4264445;27;20042;-58
2023/10/08 04:31:46;;;;;;;24.23;13.68;;;15.90;99.90;;;;;;4264535;27;20063;-58
2023/10/08 04:33:48;;;;;;;18.88;11.98;;;15.90;99.90;;;;;;4264588;27;20428;-57
2023/10/08 04:35:55;;;;;;;21.57;13.53;;;15.80;99.90;;;;;;4264074;27;20126;-54
2023/10/08 04:37:58;;;;;;;23.73;13.15;;;15.80;99.90;;;;;;4264705;27;20043;-55
2023/10/08 04:40:15;;;;;;;20.63;12.52;;;15.80;99.90;;;;;;4263880;27;20047;-55
2023/10/08 04:42:25;;;;;;;25.83;13.30;;;15.80;99.90;;;;;;4264470;27;20071;-55
2023/10/08 04:44:31;;;;;;;18.85;12.07;;;15.70;99.90;;;;;;4246208;28;20505;-56
2023/10/08 04:46:46;;;;;;;19.73;12.35;;;15.70;99.90;;;;;;4264166;27;20095;-58
2023/10/08 04:48:52;;;;;;;20.90;12.05;;;15.70;99.90;;;;;;4264490;27;20519;-57
2023/10/08 04:51:00;;;;;;;23.10;12.95;;;15.70;99.90;;;;;;4264324;27;20082;-54
2023/10/08 04:53:07;;;;;;;18.00;11.77;;;15.60;99.90;;;;;;4264410;27;20046;-56
2023/10/08 04:55:16;;;;;;;19.30;11.55;;;15.70;99.90;;;;;;4263724;27;20117;-59
2023/10/08 04:57:22;;;;;;;17.98;11.77;;;15.60;99.90;;;;;;4263983;27;20046;-59
2023/10/08 04:59:32;;;;;;;19.33;12.75;;;15.60;99.90;;;;;;4264248;27;20043;-55
2023/10/08 05:02:12;;;;;;;22.45;12.68;;;15.70;99.90;;;;;;4264133;27;20042;-55
2023/10/08 05:08:47;;;;;;;16.30;11.38;;;15.60;99.90;;;;;;4267065;27;20117;-59
2023/10/08 05:11:15;;;;;;;20.80;11.70;;;15.70;99.90;;;;;;4267174;27;20516;-55
2023/10/08 05:13:32;;;;;;;20.35;11.90;;;15.60;99.90;;;;;;4267116;27;20047;-59
2023/10/08 05:15:41;;;;;;;19.38;12.00;;;15.60;99.90;;;;;;4268650;27;20118;-59
2023/10/08 05:20:17;;;;;;;16.60;10.60;;;15.60;99.90;;;;;;4268329;27;20103;-55
2023/10/08 05:22:43;;;;;;;22.08;11.85;;;15.60;99.90;;;;;;4267298;27;20050;-58
2023/10/08 05:24:51;;;;;;;20.70;10.27;;;15.50;99.90;;;;;;4266555;27;20042;-59
2023/10/08 05:27:09;;;;;;;20.05;11.15;;;15.50;99.90;;;;;;4267348;27;20063;-56
2023/10/08 05:34:14;;;;;;;16.25;11.80;;;15.60;99.90;;;;;;4248722;27;20051;-58
2023/10/08 05:36:27;;;;;;;18.65;10.80;;;15.50;99.90;;;;;;4267028;27;20464;-58
2023/10/08 05:43:01;;;;;;;17.27;10.80;;;15.50;99.90;;;;;;4266935;27;20046;-57
2023/10/08 05:47:28;;;;;;;15.43;10.05;;;15.40;99.90;;;;;;4266604;27;20502;-58
2023/10/08 05:53:55;;;;;;;14.80;10.10;;;15.30;99.90;;;;;;4266368;27;20059;-58
2023/10/08 05:56:16;;;;;;;14.40;9.88;;;15.30;99.90;;;;;;4266491;27;20050;-58
2023/10/08 06:00:45;;;;;;;11.65;8.30;;;15.30;99.90;;;;;;4266868;27;20053;-55
2023/10/08 06:07:17;;;;;;;17.75;9.85;;;15.20;99.90;;;;;;4265957;27;20054;-58
2023/10/08 06:11:41;;;;;;;12.05;9.30;;;15.20;99.90;;;;;;4266253;27;20117;-58
2023/10/08 06:13:45;;;;;;;16.67;9.77;;;15.10;99.90;;;;;;4248160;27;20047;-58
2023/10/08 06:18:04;;;;;;;16.52;9.45;;;15.20;99.90;;;;;;4266054;27;20488;-55
2023/10/08 06:20:09;;;;;;;15.73;8.73;;;15.20;99.90;;;;;;4266388;27;20049;-56
2023/10/08 06:22:13;;;;;;;14.35;9.38;;;15.20;99.90;;;;;;4265890;27;20065;-57
2023/10/08 06:24:16;;;;;;;16.45;9.10;;;15.20;99.90;;;;;;4248000;27;20104;-56
2023/10/08 06:26:21;;;;;;;19.65;10.00;;;15.30;99.90;;;;;;4266230;27;20126;-56
2023/10/08 06:28:26;;;;;;;14.32;9.30;;;15.20;99.90;;;;;;4247947;27;20431;-56
2023/10/08 06:30:34;;;;;;;17.42;9.55;;;15.30;99.90;;;;;;4267401;27;20510;-56
2023/10/08 06:32:38;;;;;;;15.13;9.20;;;15.30;99.90;;;;;;4267120;27;20046;-58
2023/10/08 06:34:40;;;;;;;14.25;9.15;;;15.30;99.90;;;;;;4265887;27;20065;-55
2023/10/08 06:36:42;;;;;;;19.77;9.60;;;15.40;99.90;;;;;;4265835;27;20045;-56
2023/10/08 06:38:49;;;;;;;16.67;9.75;;;15.40;99.90;;;;;;4266060;27;20038;-56
2023/10/08 06:40:52;;;;;;;15.70;9.40;;;15.40;99.90;;;;;;4265719;27;20090;-55
2023/10/08 06:42:57;;;;;;;14.43;8.65;;;15.40;99.90;;;;;;4266027;27;20049;-56
2023/10/08 06:45:01;;;;;;;14.73;8.85;;;15.40;99.90;;;;;;4266110;27;20038;-56
2023/10/08 06:47:09;;;;;;;14.80;9.27;;;15.40;99.90;;;;;;4265623;27;20038;-58
2023/10/08 06:49:13;;;;;;;18.02;9.80;;;15.40;99.90;;;;;;4265875;27;20051;-57
2023/10/08 06:51:18;;;;;;;;;;;15.50;99.90;;;;;;4265802;27;20055;-57
2023/10/08 06:53:21;;;;;;;16.95;9.23;;;15.50;99.90;;;;;;4265532;27;20441;-57
2023/10/08 06:55:26;;;;;;;14.40;8.82;;;15.40;99.90;;;;;;4265497;27;20169;-57
2023/10/08 06:57:29;;;;;;;16.02;9.13;;;15.50;99.90;;;;;;4265834;27;20050;-56
2023/10/08 06:59:31;;;;;;;14.73;9.20;;;15.50;99.90;;;;;;4265822;27;20038;-58
2023/10/08 07:01:39;;;;;;;19.23;8.85;;;15.60;99.90;;;;;;4265445;27;20082;-57
2023/10/08 07:03:41;;;;;;;15.52;9.18;;;15.60;99.90;;;;;;4265551;27;20074;-55
2023/10/08 07:05:57;;;;;;;13.43;8.27;;;15.60;99.90;;;;;;4265188;27;20042;-57
2023/10/08 07:08:06;;;;;;;13.52;8.88;;;15.60;99.90;;;;;;4265428;27;20167;-58
2023/10/08 07:10:10;;;;;;;14.18;8.98;;;15.60;99.90;;;;;;4265456;27;20051;-58
2023/10/08 07:12:14;;;;;;;17.90;9.65;;;15.70;99.90;;;;;;4265525;27;20047;-58
2023/10/08 07:14:17;;;;;;;13.57;8.25;;;15.70;99.90;;;;;;4264603;27;20039;-57
2023/10/08 07:16:20;;;;;;;15.95;8.63;;;15.80;99.90;;;;;;4265144;27;20049;-57
2023/10/08 07:18:26;;;;;;;16.02;9.45;;;15.90;99.90;;;;;;4265110;27;20540;-57
2023/10/08 07:20:28;;;;;;;13.27;8.95;;;16.00;99.90;;;;;;4264984;27;20439;-57
2023/10/08 07:22:33;;;;;;;16.73;9.88;;;16.10;99.90;;;;;;4265287;27;20207;-58
2023/10/08 07:24:35;;;;;;;;;;;16.20;99.90;;;;;;4265700;27;20122;-58
2023/10/08 07:26:37;;;;;;;16.50;9.88;;;16.20;99.90;;;;;;4265150;27;20010;-58
2023/10/08 07:28:40;;;;;;;17.25;10.20;;;16.20;99.90;;;;;;4264779;27;20461;-58
2023/10/08 07:30:44;;;;;;;15.00;8.23;;;16.40;99.90;;;;;;4264723;27;20161;-58
2023/10/08 07:32:46;;;;;;;16.83;9.85;;;16.40;99.90;;;;;;4264733;27;20077;-58
2023/10/08 07:34:57;;;;;;;13.07;9.68;;;16.50;99.90;;;;;;4246342;27;20043;-59
2023/10/08 07:37:00;;;;;;;13.85;8.80;;;16.60;99.90;;;;;;4264922;27;20070;-58
2023/10/08 07:39:08;;;;;;;13.77;8.77;;;16.70;99.90;;;;;;4264776;27;20046;-56
2023/10/08 07:41:14;;;;;;;15.10;8.95;;;16.70;99.80;;;;;;4264829;27;20050;-56
2023/10/08 07:43:20;;;;;;;15.07;9.13;;;16.80;99.80;;;;;;4265125;27;20070;-58
2023/10/08 07:45:22;;;;;;;16.50;9.68;;;16.90;99.70;;;;;;4264794;27;20046;-59
2023/10/08 07:47:24;;;;;;;18.20;9.45;;;16.90;99.70;;;;;;4264922;27;20047;-58
2023/10/08 07:49:30;;;;;;;17.85;9.85;;;17.00;99.60;;;;;;4264324;27;20122;-58
2023/10/08 07:51:32;;;;;;;20.48;10.60;;;17.10;99.60;;;;;;4264697;27;20112;-58
2023/10/08 07:53:37;;;;;;;15.75;9.90;;;17.10;99.40;;;;;;4264830;27;20050;-58
2023/10/08 07:55:41;;;;;;;14.88;9.77;;;17.20;99.20;;;;;;4264929;27;20160;-59
2023/10/08 07:57:43;;;;;;;14.73;9.00;;;17.30;99.20;;;;;;4264955;27;20047;-58
2023/10/08 07:59:46;;;;;;;19.05;11.65;;;17.30;99.00;;;;;;4246696;27;20050;-58
2023/10/08 08:01:52;;;;;;;15.60;9.95;;;17.40;99.10;;;;;;4264948;27;20043;-58
2023/10/08 08:03:54;;;;;;;16.08;10.70;;;17.50;98.90;;;;;;4264315;27;20516;-59
2023/10/08 08:05:58;;;;;;;15.15;10.75;;;17.50;98.90;;;;;;4264592;27;20038;-59
2023/10/08 08:08:05;;;;;;;15.30;10.13;;;17.50;99.00;;;;;;4264581;27;20053;-58
2023/10/08 08:10:10;;;;;;;17.88;10.50;;;17.60;98.90;;;;;;4264647;27;20093;-58
2023/10/08 08:12:15;;;;;;;24.75;11.15;;;17.60;98.90;;;;;;4264589;27;20042;-59
2023/10/08 08:14:17;;;;;;;20.48;11.05;;;17.70;98.80;;;;;;4264722;27;20046;-58
2023/10/08 08:16:20;;;;;;;15.90;9.27;;;17.70;98.70;;;;;;4246416;28;20477;-57
2023/10/08 08:18:23;;;;;;;19.85;10.15;;;17.80;98.50;;;;;;4264736;27;20057;-58
2023/10/08 08:20:38;;;;;;;15.48;9.68;;;17.80;98.50;;;;;;4264779;27;20072;-58
2023/10/08 08:22:40;;;;;;;19.88;10.32;;;17.90;98.60;;;;;;4264728;27;20084;-59
2023/10/08 08:24:45;;;;;;;17.50;10.68;;;17.90;98.60;;;;;;4264519;27;20065;-58
2023/10/08 08:29:15;;;;;;;18.83;11.93;;;18.10;98.50;;;;;;4264673;27;20051;-58
2023/10/08 08:31:19;;;;;;;23.90;12.90;;;18.20;98.50;;;;;;4264232;27;20050;-58
2023/10/08 08:33:22;;;;;;;22.45;13.30;;;18.20;98.40;;;;;;4264180;27;20051;-58
2023/10/08 08:35:25;;;;;;;19.13;12.20;;;18.20;98.30;;;;;;4264249;27;20062;-58
2023/10/08 08:37:29;;;;;;;20.33;11.88;;;18.30;98.30;;;;;;4264619;27;20046;-58
2023/10/08 08:39:36;;;;;;;22.35;14.07;;;18.30;98.30;;;;;;4264709;27;20050;-58
2023/10/08 08:41:38;;;;;;;20.17;13.10;;;18.40;98.10;;;;;;4265487;27;20039;-58
2023/10/08 08:43:44;;;;;;;21.75;13.32;;;18.50;97.80;;;;;;4267981;27;20411;-58
2023/10/08 08:45:49;;;;;;;18.73;13.00;;;18.50;97.90;;;;;;4267850;27;20117;-59
2023/10/08 08:47:52;;;;;;;24.77;13.88;;;18.60;97.60;;;;;;4267496;27;20066;-58
2023/10/08 08:49:57;;;;;;;26.85;13.55;;;18.60;97.70;;;;;;4267438;27;20074;-58
2023/10/08 08:52:00;;;;;;;22.83;13.45;;;18.70;97.60;;;;;;4267364;27;20099;-57
2023/10/08 08:54:06;;;;;;;23.92;13.70;;;18.70;97.50;;;;;;4267521;27;20759;-58
2023/10/08 08:56:09;;;;;;;27.00;14.57;;;18.70;97.60;;;;;;4267775;27;20106;-59
2023/10/08 08:58:12;;;;;;;27.27;13.70;;;18.80;97.50;;;;;;4267422;27;20043;-58
2023/10/08 09:00:16;;;;;;;17.85;12.52;;;18.90;97.50;;;;;;4267399;27;20515;-59
2023/10/08 09:02:20;;;;;;;19.10;12.60;;;18.90;97.50;;;;;;4266950;27;20050;-59
2023/10/08 09:04:29;;;;;;;20.60;12.45;;;19.00;97.40;;;;;;4267433;27;20103;-58
2023/10/08 09:06:34;;;;;;;18.60;11.77;;;19.10;97.40;;;;;;4267176;27;20046;-58
2023/10/08 09:08:36;;;;;;;16.98;11.10;;;19.10;97.20;;;;;;4267384;27;20046;-57
2023/10/08 09:10:51;;;;;;;20.63;12.00;;;19.20;97.30;;;;;;4267263;27;20053;-59
2023/10/08 09:12:56;;;;;;;17.33;10.88;;;19.20;97.20;;;;;;4267162;27;20125;-58
2023/10/08 09:15:02;;;;;;;16.75;11.85;;;19.30;97.10;;;;;;4267148;27;20039;-59
2023/10/08 09:17:05;;;;;;;17.27;10.40;;;19.40;96.90;;;;;;4267143;27;20035;-58
2023/10/08 09:19:12;;;;;;;15.65;10.60;;;19.40;96.60;;;;;;4267044;27;20070;-58
2023/10/08 09:21:15;;;;;;;19.85;11.35;;;19.40;96.50;;;;;;4266950;27;20043;-57
2023/10/08 09:23:18;;;;;;;19.17;11.82;;;19.40;95.90;;;;;;4266974;27;20046;-59
2023/10/08 09:25:24;;;;;;;20.08;10.95;;;19.50;95.90;;;;;;4267162;27;20058;-58
2023/10/08 09:27:26;;;;;;;16.42;10.50;;;19.60;95.90;;;;;;4266821;27;20081;-59
2023/10/08 09:29:29;;;;;;;17.95;10.80;;;19.70;95.90;;;;;;4267069;27;20054;-58
2023/10/08 09:31:35;;;;;;;16.85;10.57;;;19.70;95.90;;;;;;4266974;27;20046;-59
2023/10/08 09:33:38;;;;;;;16.85;9.95;;;19.80;95.70;;;;;;4267130;27;20046;-61
2023/10/08 09:35:45;;;;;;;16.70;11.02;;;19.90;95.60;;;;;;4266741;27;20092;-58
2023/10/08 09:37:48;;;;;;;18.50;11.98;;;19.90;95.40;;;;;;4266910;27;20042;-59
2023/10/08 09:39:52;;;;;;;19.30;11.65;;;19.90;95.40;;;;;;4266710;27;20431;-58
2023/10/08 09:41:55;;;;;;;20.48;10.30;;;20.00;95.30;;;;;;4266871;27;20062;-58
2023/10/08 09:43:58;;;;;;;18.85;10.43;;;20.10;94.90;;;;;;4266589;27;20047;-58
2023/10/08 09:46:08;;;;;;;15.00;10.25;;;20.20;95.00;;;;;;4266421;27;20046;-58
2023/10/08 09:48:12;;;;;;;14.30;8.73;;;20.20;94.90;;;;;;4266733;27;20050;-59
2023/10/08 09:50:15;;;;;;;16.33;9.57;;;20.20;94.60;;;;;;4266483;27;20107;-59
2023/10/08 09:52:23;;;;;;;13.75;9.23;;;20.30;94.60;;;;;;4265928;27;20050;-56
2023/10/08 09:54:33;;;;;;;13.85;9.30;;;20.40;94.50;;;;;;4266581;27;20091;-64
2023/10/08 09:56:36;;;;;;;17.70;9.13;;;20.40;94.30;;;;;;4248198;27;20089;-57
2023/10/08 09:58:38;;;;;;;19.20;8.85;;;20.50;94.30;;;;;;4266160;27;20042;-58
2023/10/08 10:00:44;;;;;;;12.38;8.43;;;20.60;94.00;;;;;;4266551;27;20035;-58
2023/10/08 10:02:46;;;;;;;16.50;8.80;;;20.60;93.90;;;;;;4266580;27;20039;-59
2023/10/08 10:04:53;;;;;;;14.05;7.75;;;20.70;93.90;;;;;;4266624;27;20134;-59
2023/10/08 10:06:58;;;;;;;18.20;7.97;;;20.80;93.70;;;;;;4266232;27;20477;-59
2023/10/08 10:09:07;;;;;;;16.60;7.72;;;20.90;93.40;;;;;;4266614;27;20108;-57
2023/10/08 10:11:10;;;;;;;12.35;7.55;;;21.00;93.20;;;;;;4266314;27;20051;-57
2023/10/08 10:13:12;;;;;;;11.63;7.18;;;21.00;93.20;;;;;;4266079;27;20125;-57
2023/10/08 10:15:17;;;;;;;11.98;8.30;;;21.00;93.10;;;;;;4266310;27;20054;-58
2023/10/08 10:17:31;;;;;;;20.23;9.10;;;21.10;92.80;;;;;;4266386;27;20050;-57
2023/10/08 10:19:51;;;;;;;12.07;8.53;;;21.10;92.90;;;;;;4266348;27;20066;-57
2023/10/08 10:21:56;;;;;;;21.92;9.48;;;21.20;92.80;;;;;;4266142;27;20462;-56
2023/10/08 10:23:59;;;;;;;18.35;8.57;;;21.30;92.90;;;;;;4266388;27;20349;-59
2023/10/08 10:26:03;;;;;;;14.90;8.38;;;21.40;92.80;;;;;;4266389;27;20046;-59
2023/10/08 10:28:24;;;;;;;14.18;8.27;;;21.40;92.70;;;;;;4266088;27;20081;-56
2023/10/08 10:30:27;;;;;;;13.98;8.00;;;21.50;92.60;;;;;;4267455;27;20049;-60
2023/10/08 10:32:29;;;;;;;13.40;7.22;;;21.50;92.70;;;;;;4266153;27;20039;-57
2023/10/08 10:34:34;;;;;;;19.05;8.23;;;21.60;92.50;;;;;;4266144;27;20051;-57
2023/10/08 10:36:36;;;;;;;;;;;21.70;92.60;;;;;;4248161;27;20086;-57
2023/10/08 10:38:42;;;;;;;16.58;7.63;;;21.70;92.30;;;;;;4247630;27;20422;-57
2023/10/08 10:40:56;;;;;;;15.23;8.13;;;21.70;92.70;;;;;;4265740;27;20042;-58
2023/10/08 10:43:01;;;;;;;10.18;7.32;;;21.70;92.10;;;;;;4265637;27;20053;-57
2023/10/08 10:45:09;;;;;;;;;;;21.70;92.40;;;;;;4266387;27;20078;-56
2023/10/08 10:49:22;;;;;;;14.93;8.07;;;21.80;92.40;;;;;;4265662;27;20381;-58
2023/10/08 10:51:24;;;;;;;15.25;8.80;;;21.80;92.20;;;;;;4265559;27;20150;-57
2023/10/08 10:53:27;;;;;;;14.93;8.32;;;21.90;92.30;;;;;;4265616;27;20118;-56
2023/10/08 10:55:32;;;;;;;13.57;8.00;;;21.90;92.10;;;;;;4265874;27;20531;-56
2023/10/08 10:57:34;;;;;;;18.55;7.75;;;22.00;92.00;;;;;;4265570;27;20046;-56
2023/10/08 10:59:38;;;;;;;16.38;8.65;;;22.00;92.10;;;;;;4265875;27;20042;-58
2023/10/08 11:01:52;;;;;;;13.32;8.27;;;22.10;92.20;;;;;;4265652;27;20500;-59
2023/10/08 11:03:57;;;;;;;16.63;7.63;;;22.20;92.30;;;;;;4264516;27;20043;-58
2023/10/08 11:06:05;;;;;;;12.95;6.63;;;22.10;92.10;;;;;;4265365;27;20128;-58
2023/10/08 11:08:08;;;;;;;12.60;6.57;;;22.20;91.70;;;;;;4265572;27;20126;-58
2023/10/08 11:10:15;;;;;;;12.57;7.22;;;22.20;91.70;;;;;;4265460;27;20053;-57
2023/10/08 11:12:22;;;;;;;10.98;7.20;;;22.30;91.60;;;;;;4265241;27;20047;-58
2023/10/08 11:14:25;;;;;;;14.65;7.38;;;22.30;91.60;;;;;;4265492;27;20049;-58
2023/10/08 11:16:31;;;;;;;13.15;7.10;;;22.30;91.20;;;;;;4265348;27;20047;-58
2023/10/08 11:18:34;;;;;;;11.27;6.57;;;22.40;91.10;;;;;;4265292;27;20095;-58
2023/10/08 11:20:39;;;;;;;13.25;6.75;;;22.40;91.20;;;;;;4265509;27;20043;-57
2023/10/08 11:22:44;;;;;;;12.75;7.15;;;22.40;91.30;;;;;;4265406;27;20481;-57
2023/10/08 11:24:48;;;;;;;15.02;6.78;;;22.40;90.80;;;;;;4265103;27;20050;-57
2023/10/08 11:27:06;;;;;;;14.07;7.10;;;22.50;90.50;;;;;;4264976;27;20564;-58
2023/10/08 11:29:14;;;;;;;12.82;7.15;;;22.50;90.70;;;;;;4265236;27;20046;-58
2023/10/08 11:31:19;;;;;;;13.35;6.43;;;22.50;90.70;;;;;;4265190;27;20142;-59